sensor_id;sensor_type;location;lat;lon;timestamp;P1;durP1;ratioP1;P2;durP2;ratioP2
1831;SDS011;1680;48.106;11.708;2022-11-04T00:01:01;5.70;;;4.70;;
1831;SDS011;1680;48.106;11.708;2022-11-04T00:03:28;6.53;;;5.37;;
1831;SDS011;1680;48.106;11.708;2022-11-04T00:05:54;8.63;;;4.90;;
1831;SDS011;1680;48.106;11.708;2022-11-04T00:08:22;5.27;;;4.67;;
1831;SDS011;1680;48.106;11.708;2022-11-04T00:10:52;6.93;;;4.87;;
1831;SDS011;1680;48.106;11.708;2022-11-04T00:13:36;4.33;;;3.93;;
1831;SDS011;1680;48.106;11.708;2022-11-04T00:16:03;7.20;;;4.53;;
1831;SDS011;1680;48.106;11.708;2022-11-04T00:18:47;6.27;;;4.50;;
1831;SDS011;1680;48.106;11.708;2022-11-04T00:21:16;5.77;;;4.63;;
1831;SDS011;1680;48.106;11.708;2022-11-04T00:24:02;6.53;;;4.53;;
1831;SDS011;1680;48.106;11.708;2022-11-04T00:26:46;5.00;;;4.50;;
1831;SDS011;1680;48.106;11.708;2022-11-04T00:29:31;5.20;;;4.70;;
1831;SDS011;1680;48.106;11.708;2022-11-04T00:31:58;5.10;;;4.17;;
1831;SDS011;1680;48.106;11.708;2022-11-04T00:34:42;5.53;;;4.30;;
1831;SDS011;1680;48.106;11.708;2022-11-04T00:37:08;5.77;;;5.07;;
1831;SDS011;1680;48.106;11.708;2022-11-04T00:39:36;6.20;;;4.70;;
1831;SDS011;1680;48.106;11.708;2022-11-04T00:42:03;5.13;;;4.30;;
1831;SDS011;1680;48.106;11.708;2022-11-04T00:44:30;4.33;;;3.90;;
1831;SDS011;1680;48.106;11.708;2022-11-04T00:46:58;3.90;;;3.50;;
1831;SDS011;1680;48.106;11.708;2022-11-04T00:49:24;4.30;;;3.63;;
1831;SDS011;1680;48.106;11.708;2022-11-04T00:51:54;4.07;;;3.50;;
1831;SDS011;1680;48.106;11.708;2022-11-04T00:54:20;3.67;;;3.37;;
1831;SDS011;1680;48.106;11.708;2022-11-04T00:56:48;3.10;;;2.80;;
1831;SDS011;1680;48.106;11.708;2022-11-04T00:59:15;5.00;;;3.13;;
1831;SDS011;1680;48.106;11.708;2022-11-04T01:01:41;3.37;;;2.93;;
1831;SDS011;1680;48.106;11.708;2022-11-04T01:04:08;3.50;;;2.80;;
1831;SDS011;1680;48.106;11.708;2022-11-04T01:06:35;2.57;;;2.37;;
1831;SDS011;1680;48.106;11.708;2022-11-04T01:09:03;2.83;;;2.53;;
1831;SDS011;1680;48.106;11.708;2022-11-04T01:11:29;3.47;;;2.80;;
1831;SDS011;1680;48.106;11.708;2022-11-04T01:14:00;3.07;;;2.43;;
1831;SDS011;1680;48.106;11.708;2022-11-04T01:16:26;3.57;;;2.70;;
1831;SDS011;1680;48.106;11.708;2022-11-04T01:18:53;2.30;;;2.10;;
1831;SDS011;1680;48.106;11.708;2022-11-04T01:21:20;2.10;;;2.00;;
1831;SDS011;1680;48.106;11.708;2022-11-04T01:23:46;3.47;;;2.30;;
1831;SDS011;1680;48.106;11.708;2022-11-04T01:26:14;2.63;;;2.43;;
1831;SDS011;1680;48.106;11.708;2022-11-04T01:28:40;3.07;;;2.50;;
1831;SDS011;1680;48.106;11.708;2022-11-04T01:31:09;4.40;;;2.20;;
1831;SDS011;1680;48.106;11.708;2022-11-04T01:33:36;2.43;;;1.90;;
1831;SDS011;1680;48.106;11.708;2022-11-04T01:36:02;2.13;;;1.90;;
1831;SDS011;1680;48.106;11.708;2022-11-04T01:38:29;1.83;;;1.73;;
1831;SDS011;1680;48.106;11.708;2022-11-04T01:40:56;1.70;;;1.60;;
1831;SDS011;1680;48.106;11.708;2022-11-04T01:43:23;1.80;;;1.60;;
1831;SDS011;1680;48.106;11.708;2022-11-04T01:45:51;1.77;;;1.67;;
1831;SDS011;1680;48.106;11.708;2022-11-04T01:48:21;5.67;;;1.97;;
1831;SDS011;1680;48.106;11.708;2022-11-04T01:50:52;1.93;;;1.83;;
1831;SDS011;1680;48.106;11.708;2022-11-04T01:53:20;2.00;;;1.70;;
1831;SDS011;1680;48.106;11.708;2022-11-04T01:55:49;2.43;;;1.90;;
1831;SDS011;1680;48.106;11.708;2022-11-04T01:58:17;2.00;;;1.60;;
1831;SDS011;1680;48.106;11.708;2022-11-04T02:00:46;2.17;;;1.93;;
1831;SDS011;1680;48.106;11.708;2022-11-04T02:03:14;1.60;;;1.50;;
1831;SDS011;1680;48.106;11.708;2022-11-04T02:05:43;1.40;;;1.30;;
1831;SDS011;1680;48.106;11.708;2022-11-04T02:08:10;2.53;;;1.50;;
1831;SDS011;1680;48.106;11.708;2022-11-04T02:10:38;1.90;;;1.77;;
1831;SDS011;1680;48.106;11.708;2022-11-04T02:13:08;1.50;;;1.40;;
1831;SDS011;1680;48.106;11.708;2022-11-04T02:15:36;1.20;;;1.10;;
1831;SDS011;1680;48.106;11.708;2022-11-04T02:18:16;1.00;;;1.00;;
1831;SDS011;1680;48.106;11.708;2022-11-04T02:20:55;2.83;;;1.23;;
1831;SDS011;1680;48.106;11.708;2022-11-04T02:23:29;1.20;;;1.10;;
1831;SDS011;1680;48.106;11.708;2022-11-04T02:31:48;1.70;;;1.30;;
1831;SDS011;1680;48.106;11.708;2022-11-04T02:34:17;1.83;;;1.70;;
1831;SDS011;1680;48.106;11.708;2022-11-04T02:36:48;1.20;;;1.10;;
1831;SDS011;1680;48.106;11.708;2022-11-04T02:39:19;1.27;;;1.17;;
1831;SDS011;1680;48.106;11.708;2022-11-04T02:41:51;2.03;;;1.27;;
1831;SDS011;1680;48.106;11.708;2022-11-04T02:44:19;1.30;;;1.20;;
1831;SDS011;1680;48.106;11.708;2022-11-04T02:46:48;1.23;;;1.13;;
1831;SDS011;1680;48.106;11.708;2022-11-04T02:49:17;0.97;;;0.90;;
1831;SDS011;1680;48.106;11.708;2022-11-04T02:51:45;1.23;;;1.13;;
1831;SDS011;1680;48.106;11.708;2022-11-04T02:54:15;1.57;;;1.20;;
1831;SDS011;1680;48.106;11.708;2022-11-04T02:56:43;1.20;;;1.10;;
1831;SDS011;1680;48.106;11.708;2022-11-04T02:59:13;1.13;;;1.03;;
1831;SDS011;1680;48.106;11.708;2022-11-04T03:01:40;1.10;;;1.00;;
1831;SDS011;1680;48.106;11.708;2022-11-04T03:04:10;0.97;;;0.97;;
1831;SDS011;1680;48.106;11.708;2022-11-04T03:06:36;1.40;;;1.00;;
1831;SDS011;1680;48.106;11.708;2022-11-04T03:09:03;1.30;;;1.13;;
1831;SDS011;1680;48.106;11.708;2022-11-04T03:11:30;1.10;;;1.00;;
1831;SDS011;1680;48.106;11.708;2022-11-04T03:13:58;1.00;;;1.00;;
1831;SDS011;1680;48.106;11.708;2022-11-04T03:16:26;2.43;;;0.80;;
1831;SDS011;1680;48.106;11.708;2022-11-04T03:18:56;0.90;;;0.90;;
1831;SDS011;1680;48.106;11.708;2022-11-04T03:21:26;1.20;;;1.10;;
1831;SDS011;1680;48.106;11.708;2022-11-04T03:23:53;1.33;;;1.23;;
1831;SDS011;1680;48.106;11.708;2022-11-04T03:26:21;1.30;;;1.10;;
1831;SDS011;1680;48.106;11.708;2022-11-04T03:28:49;1.07;;;1.07;;
1831;SDS011;1680;48.106;11.708;2022-11-04T03:31:19;0.87;;;0.87;;
1831;SDS011;1680;48.106;11.708;2022-11-04T03:33:47;0.70;;;0.70;;
1831;SDS011;1680;48.106;11.708;2022-11-04T03:36:15;2.10;;;1.10;;
1831;SDS011;1680;48.106;11.708;2022-11-04T03:38:43;1.23;;;0.87;;
1831;SDS011;1680;48.106;11.708;2022-11-04T03:41:12;1.30;;;1.00;;
1831;SDS011;1680;48.106;11.708;2022-11-04T03:43:39;0.73;;;0.73;;
1831;SDS011;1680;48.106;11.708;2022-11-04T03:46:06;1.00;;;0.93;;
1831;SDS011;1680;48.106;11.708;2022-11-04T03:48:33;0.90;;;0.90;;
1831;SDS011;1680;48.106;11.708;2022-11-04T03:51:00;0.87;;;0.87;;
1831;SDS011;1680;48.106;11.708;2022-11-04T03:53:26;1.50;;;0.90;;
1831;SDS011;1680;48.106;11.708;2022-11-04T03:56:06;1.20;;;1.10;;
1831;SDS011;1680;48.106;11.708;2022-11-04T03:58:36;1.03;;;1.03;;
1831;SDS011;1680;48.106;11.708;2022-11-04T04:01:07;0.77;;;0.77;;
1831;SDS011;1680;48.106;11.708;2022-11-04T04:03:39;1.10;;;0.97;;
1831;SDS011;1680;48.106;11.708;2022-11-04T04:06:08;0.90;;;0.90;;
1831;SDS011;1680;48.106;11.708;2022-11-04T04:08:36;1.00;;;1.00;;
1831;SDS011;1680;48.106;11.708;2022-11-04T04:11:07;0.90;;;0.90;;
1831;SDS011;1680;48.106;11.708;2022-11-04T04:13:40;1.23;;;0.93;;
1831;SDS011;1680;48.106;11.708;2022-11-04T04:16:09;1.20;;;1.10;;
1831;SDS011;1680;48.106;11.708;2022-11-04T04:18:39;1.33;;;0.90;;
1831;SDS011;1680;48.106;11.708;2022-11-04T04:21:08;1.20;;;1.10;;
1831;SDS011;1680;48.106;11.708;2022-11-04T04:23:36;1.17;;;1.07;;
1831;SDS011;1680;48.106;11.708;2022-11-04T04:26:22;1.10;;;1.00;;
1831;SDS011;1680;48.106;11.708;2022-11-04T04:29:07;1.40;;;1.30;;
1831;SDS011;1680;48.106;11.708;2022-11-04T04:31:35;1.30;;;1.00;;
1831;SDS011;1680;48.106;11.708;2022-11-04T04:34:22;0.87;;;0.87;;
1831;SDS011;1680;48.106;11.708;2022-11-04T04:36:50;5.13;;;0.93;;
1831;SDS011;1680;48.106;11.708;2022-11-04T04:39:18;1.23;;;1.13;;
1831;SDS011;1680;48.106;11.708;2022-11-04T04:42:01;1.13;;;1.03;;
1831;SDS011;1680;48.106;11.708;2022-11-04T04:44:46;1.00;;;1.00;;
1831;SDS011;1680;48.106;11.708;2022-11-04T04:47:25;1.03;;;0.93;;
1831;SDS011;1680;48.106;11.708;2022-11-04T04:49:52;1.07;;;0.93;;
1831;SDS011;1680;48.106;11.708;2022-11-04T04:52:19;0.90;;;0.90;;
1831;SDS011;1680;48.106;11.708;2022-11-04T04:54:47;1.00;;;1.00;;
1831;SDS011;1680;48.106;11.708;2022-11-04T04:57:15;0.73;;;0.73;;
1831;SDS011;1680;48.106;11.708;2022-11-04T04:59:41;1.20;;;1.10;;
1831;SDS011;1680;48.106;11.708;2022-11-04T05:02:08;1.00;;;0.90;;
1831;SDS011;1680;48.106;11.708;2022-11-04T05:04:34;1.20;;;0.93;;
1831;SDS011;1680;48.106;11.708;2022-11-04T05:07:01;0.90;;;0.87;;
1831;SDS011;1680;48.106;11.708;2022-11-04T05:09:27;1.33;;;0.80;;
1831;SDS011;1680;48.106;11.708;2022-11-04T05:11:54;1.30;;;0.80;;
1831;SDS011;1680;48.106;11.708;2022-11-04T05:14:22;0.80;;;0.80;;
1831;SDS011;1680;48.106;11.708;2022-11-04T05:16:48;1.10;;;1.03;;
1831;SDS011;1680;48.106;11.708;2022-11-04T05:19:15;1.03;;;0.93;;
1831;SDS011;1680;48.106;11.708;2022-11-04T05:21:41;0.73;;;0.70;;
1831;SDS011;1680;48.106;11.708;2022-11-04T05:24:08;0.70;;;0.70;;
1831;SDS011;1680;48.106;11.708;2022-11-04T05:26:35;1.57;;;1.17;;
1831;SDS011;1680;48.106;11.708;2022-11-04T05:29:01;3.63;;;0.97;;
1831;SDS011;1680;48.106;11.708;2022-11-04T05:31:29;0.70;;;0.70;;
1831;SDS011;1680;48.106;11.708;2022-11-04T05:33:56;0.87;;;0.87;;
1831;SDS011;1680;48.106;11.708;2022-11-04T05:36:23;2.00;;;0.90;;
1831;SDS011;1680;48.106;11.708;2022-11-04T05:38:50;2.00;;;0.73;;
1831;SDS011;1680;48.106;11.708;2022-11-04T05:41:16;0.80;;;0.80;;
1831;SDS011;1680;48.106;11.708;2022-11-04T05:43:50;1.10;;;1.00;;
1831;SDS011;1680;48.106;11.708;2022-11-04T05:46:16;1.30;;;1.20;;
1831;SDS011;1680;48.106;11.708;2022-11-04T05:48:44;0.97;;;0.97;;
1831;SDS011;1680;48.106;11.708;2022-11-04T05:51:11;0.83;;;0.77;;
1831;SDS011;1680;48.106;11.708;2022-11-04T05:53:38;0.90;;;0.77;;
1831;SDS011;1680;48.106;11.708;2022-11-04T05:56:05;0.80;;;0.80;;
1831;SDS011;1680;48.106;11.708;2022-11-04T05:58:32;1.00;;;0.90;;
1831;SDS011;1680;48.106;11.708;2022-11-04T06:01:09;0.70;;;0.70;;
1831;SDS011;1680;48.106;11.708;2022-11-04T06:03:37;0.70;;;0.70;;
1831;SDS011;1680;48.106;11.708;2022-11-04T06:06:05;3.13;;;0.90;;
1831;SDS011;1680;48.106;11.708;2022-11-04T06:08:32;1.60;;;1.10;;
1831;SDS011;1680;48.106;11.708;2022-11-04T06:10:58;1.30;;;1.10;;
1831;SDS011;1680;48.106;11.708;2022-11-04T06:13:25;1.33;;;1.07;;
1831;SDS011;1680;48.106;11.708;2022-11-04T06:15:51;1.70;;;0.90;;
1831;SDS011;1680;48.106;11.708;2022-11-04T06:18:18;0.80;;;0.70;;
1831;SDS011;1680;48.106;11.708;2022-11-04T06:20:44;1.87;;;0.80;;
1831;SDS011;1680;48.106;11.708;2022-11-04T06:23:12;1.77;;;0.70;;
1831;SDS011;1680;48.106;11.708;2022-11-04T06:25:39;1.13;;;0.93;;
1831;SDS011;1680;48.106;11.708;2022-11-04T06:28:05;0.90;;;0.90;;
1831;SDS011;1680;48.106;11.708;2022-11-04T06:30:32;1.40;;;1.10;;
1831;SDS011;1680;48.106;11.708;2022-11-04T06:32:58;1.27;;;1.00;;
1831;SDS011;1680;48.106;11.708;2022-11-04T06:35:25;1.27;;;1.20;;
1831;SDS011;1680;48.106;11.708;2022-11-04T06:37:53;1.43;;;1.20;;
1831;SDS011;1680;48.106;11.708;2022-11-04T06:40:21;1.67;;;1.20;;
1831;SDS011;1680;48.106;11.708;2022-11-04T06:42:48;1.90;;;1.20;;
1831;SDS011;1680;48.106;11.708;2022-11-04T06:45:14;2.97;;;1.10;;
1831;SDS011;1680;48.106;11.708;2022-11-04T06:47:41;2.17;;;1.10;;
1831;SDS011;1680;48.106;11.708;2022-11-04T06:50:09;1.20;;;0.80;;
1831;SDS011;1680;48.106;11.708;2022-11-04T06:52:38;0.80;;;0.80;;
1831;SDS011;1680;48.106;11.708;2022-11-04T06:55:05;1.30;;;0.93;;
1831;SDS011;1680;48.106;11.708;2022-11-04T06:57:33;1.23;;;0.83;;
1831;SDS011;1680;48.106;11.708;2022-11-04T07:00:00;1.00;;;0.90;;
1831;SDS011;1680;48.106;11.708;2022-11-04T07:02:27;0.93;;;0.80;;
1831;SDS011;1680;48.106;11.708;2022-11-04T07:04:53;1.63;;;0.90;;
1831;SDS011;1680;48.106;11.708;2022-11-04T07:07:20;1.37;;;0.93;;
1831;SDS011;1680;48.106;11.708;2022-11-04T07:09:47;1.53;;;1.17;;
1831;SDS011;1680;48.106;11.708;2022-11-04T07:12:16;0.90;;;0.90;;
1831;SDS011;1680;48.106;11.708;2022-11-04T07:14:44;1.10;;;0.87;;
1831;SDS011;1680;48.106;11.708;2022-11-04T07:17:10;1.73;;;0.80;;
1831;SDS011;1680;48.106;11.708;2022-11-04T07:19:37;3.43;;;0.97;;
1831;SDS011;1680;48.106;11.708;2022-11-04T07:22:03;1.83;;;1.10;;
1831;SDS011;1680;48.106;11.708;2022-11-04T07:24:30;1.80;;;1.10;;
1831;SDS011;1680;48.106;11.708;2022-11-04T07:26:57;1.13;;;1.03;;
1831;SDS011;1680;48.106;11.708;2022-11-04T07:29:23;1.13;;;1.03;;
1831;SDS011;1680;48.106;11.708;2022-11-04T07:31:54;1.43;;;1.00;;
1831;SDS011;1680;48.106;11.708;2022-11-04T07:34:23;1.47;;;1.13;;
1831;SDS011;1680;48.106;11.708;2022-11-04T07:36:49;1.77;;;1.27;;
1831;SDS011;1680;48.106;11.708;2022-11-04T07:39:16;2.57;;;1.47;;
1831;SDS011;1680;48.106;11.708;2022-11-04T07:41:45;1.50;;;1.23;;
1831;SDS011;1680;48.106;11.708;2022-11-04T07:44:11;1.80;;;1.60;;
1831;SDS011;1680;48.106;11.708;2022-11-04T07:46:38;2.47;;;1.30;;
1831;SDS011;1680;48.106;11.708;2022-11-04T07:49:08;2.33;;;1.73;;
1831;SDS011;1680;48.106;11.708;2022-11-04T07:51:35;1.20;;;1.10;;
1831;SDS011;1680;48.106;11.708;2022-11-04T07:54:01;1.67;;;1.30;;
1831;SDS011;1680;48.106;11.708;2022-11-04T07:56:28;2.10;;;1.00;;
1831;SDS011;1680;48.106;11.708;2022-11-04T07:58:54;1.63;;;1.43;;
1831;SDS011;1680;48.106;11.708;2022-11-04T08:01:22;1.90;;;1.37;;
1831;SDS011;1680;48.106;11.708;2022-11-04T08:03:48;1.50;;;1.40;;
1831;SDS011;1680;48.106;11.708;2022-11-04T08:06:19;2.03;;;1.27;;
1831;SDS011;1680;48.106;11.708;2022-11-04T08:08:45;1.20;;;1.10;;
1831;SDS011;1680;48.106;11.708;2022-11-04T08:11:13;0.90;;;0.90;;
1831;SDS011;1680;48.106;11.708;2022-11-04T08:13:40;2.00;;;1.20;;
1831;SDS011;1680;48.106;11.708;2022-11-04T08:16:09;1.03;;;1.03;;
1831;SDS011;1680;48.106;11.708;2022-11-04T08:18:37;2.50;;;1.07;;
1831;SDS011;1680;48.106;11.708;2022-11-04T08:21:04;1.70;;;1.60;;
1831;SDS011;1680;48.106;11.708;2022-11-04T08:23:32;2.43;;;1.50;;
1831;SDS011;1680;48.106;11.708;2022-11-04T08:25:59;2.10;;;1.57;;
1831;SDS011;1680;48.106;11.708;2022-11-04T08:28:26;1.83;;;1.10;;
1831;SDS011;1680;48.106;11.708;2022-11-04T08:30:54;2.10;;;1.23;;
1831;SDS011;1680;48.106;11.708;2022-11-04T08:33:21;1.40;;;1.07;;
1831;SDS011;1680;48.106;11.708;2022-11-04T08:35:48;2.10;;;1.70;;
1831;SDS011;1680;48.106;11.708;2022-11-04T08:38:15;3.50;;;2.80;;
1831;SDS011;1680;48.106;11.708;2022-11-04T08:40:43;6.30;;;3.90;;
1831;SDS011;1680;48.106;11.708;2022-11-04T08:43:10;3.77;;;2.67;;
1831;SDS011;1680;48.106;11.708;2022-11-04T08:45:37;2.40;;;2.20;;
1831;SDS011;1680;48.106;11.708;2022-11-04T08:48:04;1.40;;;1.30;;
1831;SDS011;1680;48.106;11.708;2022-11-04T08:50:31;1.30;;;1.13;;
1831;SDS011;1680;48.106;11.708;2022-11-04T08:52:57;1.30;;;1.20;;
1831;SDS011;1680;48.106;11.708;2022-11-04T08:55:24;2.07;;;1.10;;
1831;SDS011;1680;48.106;11.708;2022-11-04T08:57:52;2.10;;;1.10;;
1831;SDS011;1680;48.106;11.708;2022-11-04T09:00:19;1.40;;;1.30;;
1831;SDS011;1680;48.106;11.708;2022-11-04T09:02:45;1.27;;;1.17;;
1831;SDS011;1680;48.106;11.708;2022-11-04T09:05:12;1.27;;;1.10;;
1831;SDS011;1680;48.106;11.708;2022-11-04T09:07:39;1.20;;;1.10;;
1831;SDS011;1680;48.106;11.708;2022-11-04T09:10:06;1.00;;;0.90;;
1831;SDS011;1680;48.106;11.708;2022-11-04T09:12:33;1.67;;;0.80;;
1831;SDS011;1680;48.106;11.708;2022-11-04T09:15:01;0.90;;;0.90;;
1831;SDS011;1680;48.106;11.708;2022-11-04T09:17:28;0.87;;;0.80;;
1831;SDS011;1680;48.106;11.708;2022-11-04T09:19:55;3.80;;;0.90;;
1831;SDS011;1680;48.106;11.708;2022-11-04T09:22:22;1.10;;;1.00;;
1831;SDS011;1680;48.106;11.708;2022-11-04T09:24:49;1.23;;;1.10;;
1831;SDS011;1680;48.106;11.708;2022-11-04T09:27:15;1.50;;;1.27;;
1831;SDS011;1680;48.106;11.708;2022-11-04T09:29:42;1.10;;;1.00;;
1831;SDS011;1680;48.106;11.708;2022-11-04T09:32:10;1.13;;;1.03;;
1831;SDS011;1680;48.106;11.708;2022-11-04T09:34:36;1.73;;;1.13;;
1831;SDS011;1680;48.106;11.708;2022-11-04T09:37:03;2.20;;;1.53;;
1831;SDS011;1680;48.106;11.708;2022-11-04T09:39:30;3.03;;;1.83;;
1831;SDS011;1680;48.106;11.708;2022-11-04T09:41:59;4.87;;;2.50;;
1831;SDS011;1680;48.106;11.708;2022-11-04T09:44:29;3.23;;;2.30;;
1831;SDS011;1680;48.106;11.708;2022-11-04T09:46:59;7.90;;;2.20;;
1831;SDS011;1680;48.106;11.708;2022-11-04T09:49:28;1.70;;;1.60;;
1831;SDS011;1680;48.106;11.708;2022-11-04T09:51:57;2.27;;;1.90;;
1831;SDS011;1680;48.106;11.708;2022-11-04T09:54:26;1.67;;;1.57;;
1831;SDS011;1680;48.106;11.708;2022-11-04T09:56:54;1.70;;;1.60;;
1831;SDS011;1680;48.106;11.708;2022-11-04T09:59:26;3.00;;;1.70;;
1831;SDS011;1680;48.106;11.708;2022-11-04T10:01:59;3.67;;;1.70;;
1831;SDS011;1680;48.106;11.708;2022-11-04T10:04:32;1.87;;;1.53;;
1831;SDS011;1680;48.106;11.708;2022-11-04T10:07:05;2.67;;;1.83;;
1831;SDS011;1680;48.106;11.708;2022-11-04T10:09:38;2.80;;;1.80;;
1831;SDS011;1680;48.106;11.708;2022-11-04T10:12:11;2.37;;;1.70;;
1831;SDS011;1680;48.106;11.708;2022-11-04T10:14:48;1.47;;;1.13;;
1831;SDS011;1680;48.106;11.708;2022-11-04T10:17:21;3.63;;;1.63;;
1831;SDS011;1680;48.106;11.708;2022-11-04T10:19:57;3.10;;;1.87;;
1831;SDS011;1680;48.106;11.708;2022-11-04T10:22:30;2.00;;;1.80;;
1831;SDS011;1680;48.106;11.708;2022-11-04T10:25:00;1.40;;;1.30;;
1831;SDS011;1680;48.106;11.708;2022-11-04T10:27:29;1.27;;;1.17;;
1831;SDS011;1680;48.106;11.708;2022-11-04T10:29:57;1.63;;;1.30;;
1831;SDS011;1680;48.106;11.708;2022-11-04T10:32:25;1.37;;;1.27;;
1831;SDS011;1680;48.106;11.708;2022-11-04T10:34:56;1.80;;;1.30;;
1831;SDS011;1680;48.106;11.708;2022-11-04T10:37:24;1.83;;;1.73;;
1831;SDS011;1680;48.106;11.708;2022-11-04T10:39:52;1.80;;;1.57;;
1831;SDS011;1680;48.106;11.708;2022-11-04T10:42:22;1.00;;;1.00;;
1831;SDS011;1680;48.106;11.708;2022-11-04T10:44:49;0.97;;;0.90;;
1831;SDS011;1680;48.106;11.708;2022-11-04T10:47:19;1.13;;;1.00;;
1831;SDS011;1680;48.106;11.708;2022-11-04T10:50:02;0.77;;;0.77;;
1831;SDS011;1680;48.106;11.708;2022-11-04T10:52:38;2.93;;;1.50;;
1831;SDS011;1680;48.106;11.708;2022-11-04T10:55:09;1.67;;;1.40;;
1831;SDS011;1680;48.106;11.708;2022-11-04T10:57:38;1.87;;;1.30;;
1831;SDS011;1680;48.106;11.708;2022-11-04T11:00:05;1.83;;;1.73;;
1831;SDS011;1680;48.106;11.708;2022-11-04T11:02:45;1.73;;;1.63;;
1831;SDS011;1680;48.106;11.708;2022-11-04T11:05:18;2.13;;;1.97;;
1831;SDS011;1680;48.106;11.708;2022-11-04T11:07:46;3.87;;;2.17;;
1831;SDS011;1680;48.106;11.708;2022-11-04T11:10:15;2.47;;;2.27;;
1831;SDS011;1680;48.106;11.708;2022-11-04T11:12:42;4.73;;;2.60;;
1831;SDS011;1680;48.106;11.708;2022-11-04T11:15:20;2.30;;;2.10;;
1831;SDS011;1680;48.106;11.708;2022-11-04T11:17:51;2.37;;;1.97;;
1831;SDS011;1680;48.106;11.708;2022-11-04T11:20:23;2.67;;;2.10;;
1831;SDS011;1680;48.106;11.708;2022-11-04T11:22:51;1.90;;;1.80;;
1831;SDS011;1680;48.106;11.708;2022-11-04T11:25:22;2.40;;;1.83;;
1831;SDS011;1680;48.106;11.708;2022-11-04T11:27:50;2.10;;;1.60;;
1831;SDS011;1680;48.106;11.708;2022-11-04T11:30:18;3.17;;;1.60;;
1831;SDS011;1680;48.106;11.708;2022-11-04T11:32:45;2.50;;;2.07;;
1831;SDS011;1680;48.106;11.708;2022-11-04T11:35:17;2.03;;;1.77;;
1831;SDS011;1680;48.106;11.708;2022-11-04T11:37:46;3.03;;;2.73;;
1831;SDS011;1680;48.106;11.708;2022-11-04T11:40:21;2.03;;;1.87;;
1831;SDS011;1680;48.106;11.708;2022-11-04T11:42:49;1.60;;;1.40;;
1831;SDS011;1680;48.106;11.708;2022-11-04T11:45:16;1.63;;;1.53;;
1831;SDS011;1680;48.106;11.708;2022-11-04T11:47:42;2.70;;;1.77;;
1831;SDS011;1680;48.106;11.708;2022-11-04T11:50:13;2.03;;;1.83;;
1831;SDS011;1680;48.106;11.708;2022-11-04T11:52:41;1.50;;;1.40;;
1831;SDS011;1680;48.106;11.708;2022-11-04T11:55:11;1.43;;;1.33;;
1831;SDS011;1680;48.106;11.708;2022-11-04T11:57:41;2.00;;;1.40;;
1831;SDS011;1680;48.106;11.708;2022-11-04T12:00:10;1.40;;;1.30;;
1831;SDS011;1680;48.106;11.708;2022-11-04T12:02:41;1.60;;;1.50;;
1831;SDS011;1680;48.106;11.708;2022-11-04T12:05:11;1.53;;;1.43;;
1831;SDS011;1680;48.106;11.708;2022-11-04T12:07:39;1.63;;;1.53;;
1831;SDS011;1680;48.106;11.708;2022-11-04T12:10:13;1.40;;;1.30;;
1831;SDS011;1680;48.106;11.708;2022-11-04T12:12:48;1.37;;;1.07;;
1831;SDS011;1680;48.106;11.708;2022-11-04T12:15:21;1.30;;;1.10;;
1831;SDS011;1680;48.106;11.708;2022-11-04T12:17:57;1.10;;;1.00;;
1831;SDS011;1680;48.106;11.708;2022-11-04T12:20:34;1.00;;;0.90;;
1831;SDS011;1680;48.106;11.708;2022-11-04T12:23:06;0.90;;;0.90;;
1831;SDS011;1680;48.106;11.708;2022-11-04T12:25:36;1.17;;;1.00;;
1831;SDS011;1680;48.106;11.708;2022-11-04T12:28:07;1.20;;;0.90;;
1831;SDS011;1680;48.106;11.708;2022-11-04T12:30:39;1.70;;;1.47;;
1831;SDS011;1680;48.106;11.708;2022-11-04T12:33:14;1.30;;;1.20;;
1831;SDS011;1680;48.106;11.708;2022-11-04T12:35:47;1.53;;;1.30;;
1831;SDS011;1680;48.106;11.708;2022-11-04T12:38:27;1.30;;;1.20;;
1831;SDS011;1680;48.106;11.708;2022-11-04T12:40:57;1.27;;;1.17;;
1831;SDS011;1680;48.106;11.708;2022-11-04T12:43:32;1.20;;;1.10;;
1831;SDS011;1680;48.106;11.708;2022-11-04T12:46:04;1.60;;;1.50;;
1831;SDS011;1680;48.106;11.708;2022-11-04T12:48:40;1.60;;;1.50;;
1831;SDS011;1680;48.106;11.708;2022-11-04T12:51:12;1.97;;;1.43;;
1831;SDS011;1680;48.106;11.708;2022-11-04T12:53:50;1.93;;;1.83;;
1831;SDS011;1680;48.106;11.708;2022-11-04T12:56:22;1.50;;;1.40;;
1831;SDS011;1680;48.106;11.708;2022-11-04T12:59:04;1.40;;;1.30;;
1831;SDS011;1680;48.106;11.708;2022-11-04T13:01:33;1.60;;;1.50;;
1831;SDS011;1680;48.106;11.708;2022-11-04T13:04:03;1.60;;;1.50;;
1831;SDS011;1680;48.106;11.708;2022-11-04T13:06:33;2.20;;;2.00;;
1831;SDS011;1680;48.106;11.708;2022-11-04T13:09:02;2.37;;;2.17;;
1831;SDS011;1680;48.106;11.708;2022-11-04T13:11:32;1.33;;;1.23;;
1831;SDS011;1680;48.106;11.708;2022-11-04T13:14:01;2.10;;;1.33;;
1831;SDS011;1680;48.106;11.708;2022-11-04T13:16:29;1.53;;;1.43;;
1831;SDS011;1680;48.106;11.708;2022-11-04T13:18:56;1.70;;;1.43;;
1831;SDS011;1680;48.106;11.708;2022-11-04T13:21:24;3.10;;;1.20;;
1831;SDS011;1680;48.106;11.708;2022-11-04T13:23:54;1.60;;;1.50;;
1831;SDS011;1680;48.106;11.708;2022-11-04T13:26:22;2.00;;;1.53;;
1831;SDS011;1680;48.106;11.708;2022-11-04T13:28:53;1.20;;;1.10;;
1831;SDS011;1680;48.106;11.708;2022-11-04T13:31:26;1.50;;;1.20;;
1831;SDS011;1680;48.106;11.708;2022-11-04T13:33:57;2.00;;;1.80;;
1831;SDS011;1680;48.106;11.708;2022-11-04T13:36:28;2.13;;;1.93;;
1831;SDS011;1680;48.106;11.708;2022-11-04T13:38:57;2.83;;;2.07;;
1831;SDS011;1680;48.106;11.708;2022-11-04T13:44:13;1.97;;;1.80;;
1831;SDS011;1680;48.106;11.708;2022-11-04T13:46:42;2.20;;;2.00;;
1831;SDS011;1680;48.106;11.708;2022-11-04T13:49:14;2.30;;;1.50;;
1831;SDS011;1680;48.106;11.708;2022-11-04T13:51:44;1.60;;;1.30;;
1831;SDS011;1680;48.106;11.708;2022-11-04T13:54:22;1.13;;;1.03;;
1831;SDS011;1680;48.106;11.708;2022-11-04T13:56:49;2.57;;;1.43;;
1831;SDS011;1680;48.106;11.708;2022-11-04T13:59:19;1.70;;;1.10;;
1831;SDS011;1680;48.106;11.708;2022-11-04T14:01:48;1.97;;;1.43;;
1831;SDS011;1680;48.106;11.708;2022-11-04T14:04:35;2.70;;;2.30;;
1831;SDS011;1680;48.106;11.708;2022-11-04T14:07:02;4.13;;;3.20;;
1831;SDS011;1680;48.106;11.708;2022-11-04T14:12:22;2.00;;;1.37;;
1831;SDS011;1680;48.106;11.708;2022-11-04T14:14:52;3.33;;;1.90;;
1831;SDS011;1680;48.106;11.708;2022-11-04T14:20:08;1.67;;;1.20;;
1831;SDS011;1680;48.106;11.708;2022-11-04T14:22:45;1.37;;;0.90;;
1831;SDS011;1680;48.106;11.708;2022-11-04T14:25:20;1.40;;;1.20;;
1831;SDS011;1680;48.106;11.708;2022-11-04T14:27:47;1.33;;;0.90;;
1831;SDS011;1680;48.106;11.708;2022-11-04T14:30:33;2.57;;;1.03;;
1831;SDS011;1680;48.106;11.708;2022-11-04T14:33:00;1.10;;;1.00;;
1831;SDS011;1680;48.106;11.708;2022-11-04T14:35:27;1.10;;;0.90;;
1831;SDS011;1680;48.106;11.708;2022-11-04T14:37:54;1.10;;;1.00;;
1831;SDS011;1680;48.106;11.708;2022-11-04T14:40:25;2.90;;;0.90;;
1831;SDS011;1680;48.106;11.708;2022-11-04T14:42:53;2.20;;;1.20;;
1831;SDS011;1680;48.106;11.708;2022-11-04T14:45:21;1.17;;;0.90;;
1831;SDS011;1680;48.106;11.708;2022-11-04T14:47:50;0.80;;;0.80;;
1831;SDS011;1680;48.106;11.708;2022-11-04T14:50:19;1.80;;;1.70;;
1831;SDS011;1680;48.106;11.708;2022-11-04T14:52:47;2.93;;;1.93;;
1831;SDS011;1680;48.106;11.708;2022-11-04T14:55:15;2.37;;;1.80;;
1831;SDS011;1680;48.106;11.708;2022-11-04T14:57:43;2.53;;;1.53;;
1831;SDS011;1680;48.106;11.708;2022-11-04T15:00:17;1.60;;;1.30;;
1831;SDS011;1680;48.106;11.708;2022-11-04T15:02:45;2.07;;;1.23;;
1831;SDS011;1680;48.106;11.708;2022-11-04T15:05:21;1.30;;;1.20;;
1831;SDS011;1680;48.106;11.708;2022-11-04T15:07:48;1.50;;;1.37;;
1831;SDS011;1680;48.106;11.708;2022-11-04T15:10:17;1.63;;;1.50;;
1831;SDS011;1680;48.106;11.708;2022-11-04T15:12:44;1.40;;;1.30;;
1831;SDS011;1680;48.106;11.708;2022-11-04T15:15:23;2.00;;;1.80;;
1831;SDS011;1680;48.106;11.708;2022-11-04T15:17:51;1.97;;;1.30;;
1831;SDS011;1680;48.106;11.708;2022-11-04T15:20:21;3.90;;;3.23;;
1831;SDS011;1680;48.106;11.708;2022-11-04T15:22:50;3.00;;;2.70;;
1831;SDS011;1680;48.106;11.708;2022-11-04T15:25:16;4.27;;;3.87;;
1831;SDS011;1680;48.106;11.708;2022-11-04T15:27:43;9.57;;;8.63;;